sensor_id;sensor_type;location;lat;lon;timestamp;P1;durP1;ratioP1;P2;durP2;ratioP2
50219;SDS011;36110;51.536;7.562;2022-12-10T00:00:35;24.67;;;18.17;;
50219;SDS011;36110;51.536;7.562;2022-12-10T00:03:00;25.00;;;18.30;;
50219;SDS011;36110;51.536;7.562;2022-12-10T00:05:26;25.20;;;18.75;;
50219;SDS011;36110;51.536;7.562;2022-12-10T00:07:51;26.00;;;18.83;;
50219;SDS011;36110;51.536;7.562;2022-12-10T00:10:17;25.38;;;18.25;;
50219;SDS011;36110;51.536;7.562;2022-12-10T00:12:42;25.77;;;17.88;;
50219;SDS011;36110;51.536;7.562;2022-12-10T00:15:07;27.65;;;20.20;;
50219;SDS011;36110;51.536;7.562;2022-12-10T00:17:33;23.80;;;17.02;;
50219;SDS011;36110;51.536;7.562;2022-12-10T00:19:58;25.85;;;18.55;;
50219;SDS011;36110;51.536;7.562;2022-12-10T00:22:23;25.30;;;18.65;;
50219;SDS011;36110;51.536;7.562;2022-12-10T00:24:49;25.08;;;18.23;;
50219;SDS011;36110;51.536;7.562;2022-12-10T00:27:14;27.05;;;18.95;;
50219;SDS011;36110;51.536;7.562;2022-12-10T00:29:39;24.50;;;18.13;;
50219;SDS011;36110;51.536;7.562;2022-12-10T00:32:04;22.60;;;16.52;;
50219;SDS011;36110;51.536;7.562;2022-12-10T00:34:31;24.33;;;17.10;;
50219;SDS011;36110;51.536;7.562;2022-12-10T00:36:56;22.08;;;16.65;;
50219;SDS011;36110;51.536;7.562;2022-12-10T00:39:22;23.65;;;17.48;;
50219;SDS011;36110;51.536;7.562;2022-12-10T00:41:47;24.77;;;17.42;;
50219;SDS011;36110;51.536;7.562;2022-12-10T00:44:13;23.80;;;17.23;;
50219;SDS011;36110;51.536;7.562;2022-12-10T00:46:39;24.90;;;17.58;;
50219;SDS011;36110;51.536;7.562;2022-12-10T00:49:04;23.42;;;17.48;;
50219;SDS011;36110;51.536;7.562;2022-12-10T00:51:30;23.17;;;17.63;;
50219;SDS011;36110;51.536;7.562;2022-12-10T00:53:56;24.38;;;17.23;;
50219;SDS011;36110;51.536;7.562;2022-12-10T00:56:23;23.10;;;16.45;;
50219;SDS011;36110;51.536;7.562;2022-12-10T00:58:50;23.58;;;16.88;;
50219;SDS011;36110;51.536;7.562;2022-12-10T01:03:46;22.50;;;17.20;;
50219;SDS011;36110;51.536;7.562;2022-12-10T01:08:59;21.02;;;16.00;;
50219;SDS011;36110;51.536;7.562;2022-12-10T01:11:28;23.17;;;16.50;;
50219;SDS011;36110;51.536;7.562;2022-12-10T01:13:55;22.08;;;16.10;;
50219;SDS011;36110;51.536;7.562;2022-12-10T01:16:21;22.58;;;16.52;;
50219;SDS011;36110;51.536;7.562;2022-12-10T01:18:47;21.60;;;16.27;;
50219;SDS011;36110;51.536;7.562;2022-12-10T01:21:17;20.67;;;16.40;;
50219;SDS011;36110;51.536;7.562;2022-12-10T01:23:44;21.38;;;16.35;;
50219;SDS011;36110;51.536;7.562;2022-12-10T01:26:12;23.20;;;17.00;;
50219;SDS011;36110;51.536;7.562;2022-12-10T01:28:40;21.17;;;15.80;;
50219;SDS011;36110;51.536;7.562;2022-12-10T01:31:08;21.95;;;16.15;;
50219;SDS011;36110;51.536;7.562;2022-12-10T01:33:36;20.63;;;15.30;;
50219;SDS011;36110;51.536;7.562;2022-12-10T01:36:02;21.27;;;16.42;;
50219;SDS011;36110;51.536;7.562;2022-12-10T01:38:29;22.98;;;16.85;;
50219;SDS011;36110;51.536;7.562;2022-12-10T01:40:54;20.73;;;15.30;;
50219;SDS011;36110;51.536;7.562;2022-12-10T01:43:20;22.17;;;16.33;;
50219;SDS011;36110;51.536;7.562;2022-12-10T01:45:45;20.83;;;15.75;;
50219;SDS011;36110;51.536;7.562;2022-12-10T01:48:10;21.05;;;15.45;;
50219;SDS011;36110;51.536;7.562;2022-12-10T01:50:36;21.35;;;15.50;;
50219;SDS011;36110;51.536;7.562;2022-12-10T01:53:02;20.60;;;15.63;;
50219;SDS011;36110;51.536;7.562;2022-12-10T01:58:19;20.90;;;15.13;;
50219;SDS011;36110;51.536;7.562;2022-12-10T02:00:47;21.42;;;15.48;;
50219;SDS011;36110;51.536;7.562;2022-12-10T02:03:52;33.33;;;22.25;;
50219;SDS011;36110;51.536;7.562;2022-12-10T02:06:32;22.40;;;16.20;;
50219;SDS011;36110;51.536;7.562;2022-12-10T02:09:25;21.60;;;15.77;;
50219;SDS011;36110;51.536;7.562;2022-12-10T02:14:35;21.45;;;15.35;;
50219;SDS011;36110;51.536;7.562;2022-12-10T02:17:14;18.98;;;14.25;;
50219;SDS011;36110;51.536;7.562;2022-12-10T02:22:38;19.42;;;14.43;;
50219;SDS011;36110;51.536;7.562;2022-12-10T02:25:07;20.10;;;14.65;;
50219;SDS011;36110;51.536;7.562;2022-12-10T02:30:08;19.08;;;14.10;;
50219;SDS011;36110;51.536;7.562;2022-12-10T02:32:35;20.92;;;14.80;;
50219;SDS011;36110;51.536;7.562;2022-12-10T02:35:04;18.52;;;14.27;;
50219;SDS011;36110;51.536;7.562;2022-12-10T02:37:39;19.35;;;14.95;;
50219;SDS011;36110;51.536;7.562;2022-12-10T02:40:11;19.73;;;15.05;;
50219;SDS011;36110;51.536;7.562;2022-12-10T02:42:40;20.17;;;14.70;;
50219;SDS011;36110;51.536;7.562;2022-12-10T02:45:06;18.58;;;14.38;;
50219;SDS011;36110;51.536;7.562;2022-12-10T02:47:33;18.15;;;14.30;;
50219;SDS011;36110;51.536;7.562;2022-12-10T02:49:59;19.60;;;14.27;;
50219;SDS011;36110;51.536;7.562;2022-12-10T02:52:36;26.67;;;18.25;;
50219;SDS011;36110;51.536;7.562;2022-12-10T02:55:07;17.23;;;13.23;;
50219;SDS011;36110;51.536;7.562;2022-12-10T02:57:49;18.20;;;13.52;;
50219;SDS011;36110;51.536;7.562;2022-12-10T03:00:23;21.27;;;14.82;;
50219;SDS011;36110;51.536;7.562;2022-12-10T03:02:59;58.08;;;36.05;;
50219;SDS011;36110;51.536;7.562;2022-12-10T03:08:24;18.55;;;13.77;;
50219;SDS011;36110;51.536;7.562;2022-12-10T03:13:40;18.75;;;13.77;;
50219;SDS011;36110;51.536;7.562;2022-12-10T03:16:21;21.33;;;15.13;;
50219;SDS011;36110;51.536;7.562;2022-12-10T03:18:50;19.15;;;14.65;;
50219;SDS011;36110;51.536;7.562;2022-12-10T03:24:00;20.17;;;15.13;;
50219;SDS011;36110;51.536;7.562;2022-12-10T03:26:29;25.77;;;17.95;;
50219;SDS011;36110;51.536;7.562;2022-12-10T03:29:01;19.05;;;13.45;;
50219;SDS011;36110;51.536;7.562;2022-12-10T03:31:30;17.30;;;12.85;;
50219;SDS011;36110;51.536;7.562;2022-12-10T03:33:57;18.27;;;13.98;;
50219;SDS011;36110;51.536;7.562;2022-12-10T03:36:23;18.15;;;13.27;;
50219;SDS011;36110;51.536;7.562;2022-12-10T03:38:49;17.17;;;13.10;;
50219;SDS011;36110;51.536;7.562;2022-12-10T03:41:15;17.25;;;12.80;;
50219;SDS011;36110;51.536;7.562;2022-12-10T03:43:50;17.73;;;13.18;;
50219;SDS011;36110;51.536;7.562;2022-12-10T03:46:20;17.02;;;12.57;;
50219;SDS011;36110;51.536;7.562;2022-12-10T03:48:49;17.75;;;13.43;;
50219;SDS011;36110;51.536;7.562;2022-12-10T03:51:33;19.75;;;13.52;;
50219;SDS011;36110;51.536;7.562;2022-12-10T03:54:00;18.63;;;13.85;;
50219;SDS011;36110;51.536;7.562;2022-12-10T03:56:26;18.60;;;13.38;;
50219;SDS011;36110;51.536;7.562;2022-12-10T03:58:52;17.08;;;12.57;;
50219;SDS011;36110;51.536;7.562;2022-12-10T04:01:17;16.45;;;12.48;;
50219;SDS011;36110;51.536;7.562;2022-12-10T04:03:43;16.73;;;13.02;;
50219;SDS011;36110;51.536;7.562;2022-12-10T04:06:13;14.93;;;11.93;;
50219;SDS011;36110;51.536;7.562;2022-12-10T04:08:48;16.17;;;12.85;;
50219;SDS011;36110;51.536;7.562;2022-12-10T04:11:21;16.73;;;12.25;;
50219;SDS011;36110;51.536;7.562;2022-12-10T04:13:55;16.85;;;13.40;;
50219;SDS011;36110;51.536;7.562;2022-12-10T04:16:39;16.17;;;12.35;;
50219;SDS011;36110;51.536;7.562;2022-12-10T04:19:11;16.50;;;12.25;;
50219;SDS011;36110;51.536;7.562;2022-12-10T04:21:43;17.50;;;12.70;;
50219;SDS011;36110;51.536;7.562;2022-12-10T04:24:29;17.08;;;12.40;;
50219;SDS011;36110;51.536;7.562;2022-12-10T04:29:43;17.00;;;12.68;;
50219;SDS011;36110;51.536;7.562;2022-12-10T04:32:09;17.55;;;13.00;;
50219;SDS011;36110;51.536;7.562;2022-12-10T04:34:39;19.10;;;13.13;;
50219;SDS011;36110;51.536;7.562;2022-12-10T04:37:08;24.75;;;18.05;;
50219;SDS011;36110;51.536;7.562;2022-12-10T04:39:39;19.40;;;14.13;;
50219;SDS011;36110;51.536;7.562;2022-12-10T04:42:14;16.50;;;12.25;;
50219;SDS011;36110;51.536;7.562;2022-12-10T04:44:40;15.65;;;12.02;;
50219;SDS011;36110;51.536;7.562;2022-12-10T04:47:09;23.20;;;15.77;;
50219;SDS011;36110;51.536;7.562;2022-12-10T04:49:35;15.93;;;11.75;;
50219;SDS011;36110;51.536;7.562;2022-12-10T04:52:01;16.35;;;12.85;;
50219;SDS011;36110;51.536;7.562;2022-12-10T04:54:26;15.85;;;12.52;;
50219;SDS011;36110;51.536;7.562;2022-12-10T04:56:52;15.88;;;12.20;;
50219;SDS011;36110;51.536;7.562;2022-12-10T04:59:20;16.25;;;12.23;;
50219;SDS011;36110;51.536;7.562;2022-12-10T05:01:50;14.70;;;11.98;;
50219;SDS011;36110;51.536;7.562;2022-12-10T05:04:33;15.68;;;12.00;;
50219;SDS011;36110;51.536;7.562;2022-12-10T05:07:05;14.75;;;11.70;;
50219;SDS011;36110;51.536;7.562;2022-12-10T05:09:33;16.02;;;12.40;;
50219;SDS011;36110;51.536;7.562;2022-12-10T05:12:02;16.67;;;12.50;;
50219;SDS011;36110;51.536;7.562;2022-12-10T05:14:39;27.80;;;19.05;;
50219;SDS011;36110;51.536;7.562;2022-12-10T05:17:08;15.73;;;11.85;;
50219;SDS011;36110;51.536;7.562;2022-12-10T05:19:43;14.48;;;11.75;;
50219;SDS011;36110;51.536;7.562;2022-12-10T05:22:21;15.60;;;11.65;;
50219;SDS011;36110;51.536;7.562;2022-12-10T05:25:05;16.42;;;12.55;;
50219;SDS011;36110;51.536;7.562;2022-12-10T05:27:34;15.10;;;11.38;;
50219;SDS011;36110;51.536;7.562;2022-12-10T05:30:01;14.45;;;11.30;;
50219;SDS011;36110;51.536;7.562;2022-12-10T05:32:27;30.30;;;20.02;;
50219;SDS011;36110;51.536;7.562;2022-12-10T05:34:55;14.32;;;11.30;;
50219;SDS011;36110;51.536;7.562;2022-12-10T05:37:23;35.08;;;23.17;;
50219;SDS011;36110;51.536;7.562;2022-12-10T05:39:48;15.73;;;12.00;;
50219;SDS011;36110;51.536;7.562;2022-12-10T05:42:14;15.88;;;11.85;;
50219;SDS011;36110;51.536;7.562;2022-12-10T05:44:41;39.75;;;27.02;;
50219;SDS011;36110;51.536;7.562;2022-12-10T05:47:12;15.73;;;11.48;;
50219;SDS011;36110;51.536;7.562;2022-12-10T05:49:43;18.02;;;13.25;;
50219;SDS011;36110;51.536;7.562;2022-12-10T05:52:15;15.68;;;11.85;;
50219;SDS011;36110;51.536;7.562;2022-12-10T05:54:45;15.05;;;11.25;;
50219;SDS011;36110;51.536;7.562;2022-12-10T05:57:11;16.15;;;11.70;;
50219;SDS011;36110;51.536;7.562;2022-12-10T05:59:37;15.75;;;11.80;;
50219;SDS011;36110;51.536;7.562;2022-12-10T06:02:07;14.57;;;11.40;;
50219;SDS011;36110;51.536;7.562;2022-12-10T06:04:41;14.75;;;10.95;;
50219;SDS011;36110;51.536;7.562;2022-12-10T06:07:10;14.68;;;10.70;;
50219;SDS011;36110;51.536;7.562;2022-12-10T06:09:41;15.73;;;11.65;;
50219;SDS011;36110;51.536;7.562;2022-12-10T06:12:06;14.93;;;11.07;;
50219;SDS011;36110;51.536;7.562;2022-12-10T06:14:36;14.43;;;11.05;;
50219;SDS011;36110;51.536;7.562;2022-12-10T06:17:18;14.77;;;11.13;;
50219;SDS011;36110;51.536;7.562;2022-12-10T06:20:07;13.70;;;11.13;;
50219;SDS011;36110;51.536;7.562;2022-12-10T06:23:07;13.77;;;10.55;;
50219;SDS011;36110;51.536;7.562;2022-12-10T06:25:37;13.55;;;10.50;;
50219;SDS011;36110;51.536;7.562;2022-12-10T06:28:05;14.85;;;11.10;;
50219;SDS011;36110;51.536;7.562;2022-12-10T06:30:34;13.43;;;10.63;;
50219;SDS011;36110;51.536;7.562;2022-12-10T06:33:08;12.90;;;10.68;;
50219;SDS011;36110;51.536;7.562;2022-12-10T06:35:42;14.52;;;11.05;;
50219;SDS011;36110;51.536;7.562;2022-12-10T06:38:09;14.13;;;11.23;;
50219;SDS011;36110;51.536;7.562;2022-12-10T06:40:39;13.15;;;10.90;;
50219;SDS011;36110;51.536;7.562;2022-12-10T06:43:12;14.07;;;10.83;;
50219;SDS011;36110;51.536;7.562;2022-12-10T06:45:38;14.48;;;11.20;;
50219;SDS011;36110;51.536;7.562;2022-12-10T06:48:04;14.77;;;10.82;;
50219;SDS011;36110;51.536;7.562;2022-12-10T06:50:30;17.13;;;12.13;;
50219;SDS011;36110;51.536;7.562;2022-12-10T06:52:55;14.93;;;11.40;;
50219;SDS011;36110;51.536;7.562;2022-12-10T06:55:21;26.40;;;17.92;;
50219;SDS011;36110;51.536;7.562;2022-12-10T06:57:46;13.60;;;10.93;;
50219;SDS011;36110;51.536;7.562;2022-12-10T07:00:11;18.73;;;13.45;;
50219;SDS011;36110;51.536;7.562;2022-12-10T07:02:37;14.13;;;11.13;;
50219;SDS011;36110;51.536;7.562;2022-12-10T07:05:03;16.15;;;11.73;;
50219;SDS011;36110;51.536;7.562;2022-12-10T07:07:28;14.55;;;10.80;;
50219;SDS011;36110;51.536;7.562;2022-12-10T07:09:53;14.63;;;10.68;;
50219;SDS011;36110;51.536;7.562;2022-12-10T07:12:19;16.10;;;10.73;;
50219;SDS011;36110;51.536;7.562;2022-12-10T07:14:44;14.38;;;10.85;;
50219;SDS011;36110;51.536;7.562;2022-12-10T07:17:09;13.00;;;10.30;;
50219;SDS011;36110;51.536;7.562;2022-12-10T07:19:35;14.50;;;11.00;;
50219;SDS011;36110;51.536;7.562;2022-12-10T07:22:00;13.40;;;10.18;;
50219;SDS011;36110;51.536;7.562;2022-12-10T07:24:25;12.55;;;10.25;;
50219;SDS011;36110;51.536;7.562;2022-12-10T07:26:51;17.30;;;12.98;;
50219;SDS011;36110;51.536;7.562;2022-12-10T07:29:18;13.80;;;10.30;;
50219;SDS011;36110;51.536;7.562;2022-12-10T07:31:44;14.43;;;10.63;;
50219;SDS011;36110;51.536;7.562;2022-12-10T07:34:10;18.90;;;12.57;;
50219;SDS011;36110;51.536;7.562;2022-12-10T07:36:36;13.07;;;10.13;;
50219;SDS011;36110;51.536;7.562;2022-12-10T07:39:04;31.45;;;21.63;;
50219;SDS011;36110;51.536;7.562;2022-12-10T07:41:30;32.28;;;22.30;;
50219;SDS011;36110;51.536;7.562;2022-12-10T07:43:55;23.80;;;16.33;;
50219;SDS011;36110;51.536;7.562;2022-12-10T07:46:23;26.33;;;17.73;;
50219;SDS011;36110;51.536;7.562;2022-12-10T07:48:52;16.73;;;11.93;;
50219;SDS011;36110;51.536;7.562;2022-12-10T07:51:18;14.57;;;11.13;;
50219;SDS011;36110;51.536;7.562;2022-12-10T07:53:45;14.98;;;11.18;;
50219;SDS011;36110;51.536;7.562;2022-12-10T07:56:11;14.02;;;10.60;;
50219;SDS011;36110;51.536;7.562;2022-12-10T07:58:36;23.58;;;16.88;;
50219;SDS011;36110;51.536;7.562;2022-12-10T08:01:06;14.80;;;10.73;;
50219;SDS011;36110;51.536;7.562;2022-12-10T08:03:35;22.08;;;16.52;;
50219;SDS011;36110;51.536;7.562;2022-12-10T08:06:06;13.48;;;10.10;;
50219;SDS011;36110;51.536;7.562;2022-12-10T08:08:33;13.48;;;10.60;;
50219;SDS011;36110;51.536;7.562;2022-12-10T08:10:59;14.82;;;9.75;;
50219;SDS011;36110;51.536;7.562;2022-12-10T08:13:25;37.22;;;23.92;;
50219;SDS011;36110;51.536;7.562;2022-12-10T08:15:50;17.10;;;12.98;;
50219;SDS011;36110;51.536;7.562;2022-12-10T08:18:16;32.65;;;22.35;;
50219;SDS011;36110;51.536;7.562;2022-12-10T08:20:41;19.92;;;12.27;;
50219;SDS011;36110;51.536;7.562;2022-12-10T08:23:06;14.05;;;10.40;;
50219;SDS011;36110;51.536;7.562;2022-12-10T08:25:31;12.80;;;9.98;;
50219;SDS011;36110;51.536;7.562;2022-12-10T08:27:57;17.55;;;12.23;;
50219;SDS011;36110;51.536;7.562;2022-12-10T08:30:24;15.93;;;11.60;;
50219;SDS011;36110;51.536;7.562;2022-12-10T08:32:50;14.60;;;10.23;;
50219;SDS011;36110;51.536;7.562;2022-12-10T08:35:15;25.30;;;17.90;;
50219;SDS011;36110;51.536;7.562;2022-12-10T08:37:41;25.23;;;17.25;;
50219;SDS011;36110;51.536;7.562;2022-12-10T08:40:06;21.67;;;15.90;;
50219;SDS011;36110;51.536;7.562;2022-12-10T08:42:32;12.05;;;9.77;;
50219;SDS011;36110;51.536;7.562;2022-12-10T08:44:57;12.85;;;9.55;;
50219;SDS011;36110;51.536;7.562;2022-12-10T08:47:23;15.75;;;11.77;;
50219;SDS011;36110;51.536;7.562;2022-12-10T08:49:48;13.23;;;9.60;;
50219;SDS011;36110;51.536;7.562;2022-12-10T08:52:16;20.15;;;13.27;;
50219;SDS011;36110;51.536;7.562;2022-12-10T08:54:41;14.75;;;10.57;;
50219;SDS011;36110;51.536;7.562;2022-12-10T08:57:06;17.95;;;13.30;;
50219;SDS011;36110;51.536;7.562;2022-12-10T08:59:32;19.27;;;13.43;;
50219;SDS011;36110;51.536;7.562;2022-12-10T09:01:57;14.88;;;10.98;;
50219;SDS011;36110;51.536;7.562;2022-12-10T09:04:23;15.27;;;11.02;;
50219;SDS011;36110;51.536;7.562;2022-12-10T09:06:48;13.52;;;9.60;;
50219;SDS011;36110;51.536;7.562;2022-12-10T09:09:13;18.48;;;13.88;;
50219;SDS011;36110;51.536;7.562;2022-12-10T09:11:39;29.10;;;20.45;;
50219;SDS011;36110;51.536;7.562;2022-12-10T09:14:07;22.80;;;16.50;;
50219;SDS011;36110;51.536;7.562;2022-12-10T09:16:36;32.25;;;21.70;;
50219;SDS011;36110;51.536;7.562;2022-12-10T09:19:03;22.30;;;16.20;;
50219;SDS011;36110;51.536;7.562;2022-12-10T09:21:30;13.90;;;10.50;;
50219;SDS011;36110;51.536;7.562;2022-12-10T09:23:55;11.82;;;9.45;;
50219;SDS011;36110;51.536;7.562;2022-12-10T09:26:21;21.15;;;14.73;;
50219;SDS011;36110;51.536;7.562;2022-12-10T09:28:46;16.67;;;12.27;;
50219;SDS011;36110;51.536;7.562;2022-12-10T09:31:13;14.45;;;10.68;;
50219;SDS011;36110;51.536;7.562;2022-12-10T09:36:17;14.45;;;10.55;;
50219;SDS011;36110;51.536;7.562;2022-12-10T09:38:43;30.88;;;21.70;;
50219;SDS011;36110;51.536;7.562;2022-12-10T09:46:38;22.90;;;16.58;;
50219;SDS011;36110;51.536;7.562;2022-12-10T09:51:40;15.88;;;10.95;;
50219;SDS011;36110;51.536;7.562;2022-12-10T09:54:42;10.88;;;8.98;;
50219;SDS011;36110;51.536;7.562;2022-12-10T09:56:59;13.93;;;9.70;;
50219;SDS011;36110;51.536;7.562;2022-12-10T09:59:34;17.88;;;12.52;;
50219;SDS011;36110;51.536;7.562;2022-12-10T10:04:50;12.25;;;9.00;;
50219;SDS011;36110;51.536;7.562;2022-12-10T10:07:20;12.35;;;9.45;;
50219;SDS011;36110;51.536;7.562;2022-12-10T10:09:48;12.82;;;10.13;;
50219;SDS011;36110;51.536;7.562;2022-12-10T10:12:14;26.63;;;18.08;;
50219;SDS011;36110;51.536;7.562;2022-12-10T10:14:39;11.82;;;9.02;;
50219;SDS011;36110;51.536;7.562;2022-12-10T10:17:11;31.65;;;19.60;;
50219;SDS011;36110;51.536;7.562;2022-12-10T10:19:41;10.50;;;7.45;;
50219;SDS011;36110;51.536;7.562;2022-12-10T10:22:09;10.98;;;8.85;;
50219;SDS011;36110;51.536;7.562;2022-12-10T10:24:36;22.85;;;14.82;;
50219;SDS011;36110;51.536;7.562;2022-12-10T10:27:12;13.27;;;9.65;;
50219;SDS011;36110;51.536;7.562;2022-12-10T10:29:46;11.75;;;9.23;;
50219;SDS011;36110;51.536;7.562;2022-12-10T10:32:17;11.77;;;9.20;;
50219;SDS011;36110;51.536;7.562;2022-12-10T10:34:52;30.77;;;20.50;;
50219;SDS011;36110;51.536;7.562;2022-12-10T10:37:26;29.48;;;18.25;;
50219;SDS011;36110;51.536;7.562;2022-12-10T10:39:55;28.67;;;19.70;;
50219;SDS011;36110;51.536;7.562;2022-12-10T10:42:32;29.27;;;20.58;;
50219;SDS011;36110;51.536;7.562;2022-12-10T10:44:59;29.30;;;19.77;;
50219;SDS011;36110;51.536;7.562;2022-12-10T10:49:50;32.97;;;21.77;;
50219;SDS011;36110;51.536;7.562;2022-12-10T10:52:16;29.75;;;20.92;;
50219;SDS011;36110;51.536;7.562;2022-12-10T10:54:45;29.30;;;19.75;;
50219;SDS011;36110;51.536;7.562;2022-12-10T10:57:22;32.90;;;21.42;;
50219;SDS011;36110;51.536;7.562;2022-12-10T10:59:53;30.52;;;20.90;;
50219;SDS011;36110;51.536;7.562;2022-12-10T11:02:40;30.98;;;21.05;;
50219;SDS011;36110;51.536;7.562;2022-12-10T11:05:07;31.17;;;20.90;;
50219;SDS011;36110;51.536;7.562;2022-12-10T11:07:39;31.80;;;21.15;;
50219;SDS011;36110;51.536;7.562;2022-12-10T11:10:17;31.92;;;21.77;;
50219;SDS011;36110;51.536;7.562;2022-12-10T11:12:45;29.98;;;20.95;;
50219;SDS011;36110;51.536;7.562;2022-12-10T11:17:51;30.75;;;21.45;;
50219;SDS011;36110;51.536;7.562;2022-12-10T11:20:19;30.02;;;21.20;;
50219;SDS011;36110;51.536;7.562;2022-12-10T11:22:56;32.00;;;20.92;;
50219;SDS011;36110;51.536;7.562;2022-12-10T11:25:57;28.65;;;20.00;;
50219;SDS011;36110;51.536;7.562;2022-12-10T11:30:49;28.55;;;20.27;;
50219;SDS011;36110;51.536;7.562;2022-12-10T11:39:02;27.25;;;19.05;;
50219;SDS011;36110;51.536;7.562;2022-12-10T11:41:48;31.75;;;19.80;;
50219;SDS011;36110;51.536;7.562;2022-12-10T11:44:29;29.42;;;19.05;;
50219;SDS011;36110;51.536;7.562;2022-12-10T11:47:18;26.63;;;18.95;;
50219;SDS011;36110;51.536;7.562;2022-12-10T11:50:11;27.90;;;19.52;;
50219;SDS011;36110;51.536;7.562;2022-12-10T12:01:03;27.48;;;18.85;;
50219;SDS011;36110;51.536;7.562;2022-12-10T12:09:21;26.52;;;18.83;;
50219;SDS011;36110;51.536;7.562;2022-12-10T12:14:24;28.08;;;19.65;;
50219;SDS011;36110;51.536;7.562;2022-12-10T12:17:00;27.55;;;19.60;;
50219;SDS011;36110;51.536;7.562;2022-12-10T12:19:35;26.33;;;19.48;;
50219;SDS011;36110;51.536;7.562;2022-12-10T12:22:15;27.60;;;19.85;;
50219;SDS011;36110;51.536;7.562;2022-12-10T12:24:46;28.10;;;19.67;;
50219;SDS011;36110;51.536;7.562;2022-12-10T12:27:16;28.00;;;18.73;;
50219;SDS011;36110;51.536;7.562;2022-12-10T12:30:06;25.65;;;18.48;;
50219;SDS011;36110;51.536;7.562;2022-12-10T12:38:27;26.88;;;18.95;;
50219;SDS011;36110;51.536;7.562;2022-12-10T12:43:47;27.27;;;18.83;;
50219;SDS011;36110;51.536;7.562;2022-12-10T12:46:42;26.63;;;18.38;;
50219;SDS011;36110;51.536;7.562;2022-12-10T12:55:01;25.23;;;17.92;;
50219;SDS011;36110;51.536;7.562;2022-12-10T12:57:35;25.08;;;17.65;;
50219;SDS011;36110;51.536;7.562;2022-12-10T13:00:14;25.38;;;17.83;;
50219;SDS011;36110;51.536;7.562;2022-12-10T13:02:51;25.67;;;18.77;;
50219;SDS011;36110;51.536;7.562;2022-12-10T13:05:33;27.67;;;19.27;;
50219;SDS011;36110;51.536;7.562;2022-12-10T13:10:45;26.70;;;18.52;;
50219;SDS011;36110;51.536;7.562;2022-12-10T13:13:23;24.10;;;17.98;;
50219;SDS011;36110;51.536;7.562;2022-12-10T13:15:53;33.60;;;22.75;;
50219;SDS011;36110;51.536;7.562;2022-12-10T13:18:20;24.00;;;17.48;;
50219;SDS011;36110;51.536;7.562;2022-12-10T13:21:34;25.90;;;17.80;;
50219;SDS011;36110;51.536;7.562;2022-12-10T13:24:05;24.45;;;16.58;;
50219;SDS011;36110;51.536;7.562;2022-12-10T13:26:34;30.50;;;20.88;;
50219;SDS011;36110;51.536;7.562;2022-12-10T13:29:22;26.77;;;18.27;;
50219;SDS011;36110;51.536;7.562;2022-12-10T13:32:01;24.95;;;17.15;;
50219;SDS011;36110;51.536;7.562;2022-12-10T13:34:36;24.75;;;17.38;;
50219;SDS011;36110;51.536;7.562;2022-12-10T13:37:04;25.02;;;17.75;;
50219;SDS011;36110;51.536;7.562;2022-12-10T13:39:47;25.13;;;17.77;;
50219;SDS011;36110;51.536;7.562;2022-12-10T13:45:16;23.63;;;17.08;;
50219;SDS011;36110;51.536;7.562;2022-12-10T13:53:12;23.02;;;16.55;;
50219;SDS011;36110;51.536;7.562;2022-12-10T13:58:43;25.55;;;17.92;;
50219;SDS011;36110;51.536;7.562;2022-12-10T14:04:18;24.95;;;17.02;;
50219;SDS011;36110;51.536;7.562;2022-12-10T14:06:51;24.60;;;17.08;;
50219;SDS011;36110;51.536;7.562;2022-12-10T14:09:21;23.10;;;16.30;;
50219;SDS011;36110;51.536;7.562;2022-12-10T14:11:53;24.55;;;17.45;;
50219;SDS011;36110;51.536;7.562;2022-12-10T14:14:24;23.48;;;16.50;;
50219;SDS011;36110;51.536;7.562;2022-12-10T14:16:59;23.10;;;16.55;;
50219;SDS011;36110;51.536;7.562;2022-12-10T14:19:26;24.40;;;17.20;;
50219;SDS011;36110;51.536;7.562;2022-12-10T14:21:52;23.65;;;16.63;;
50219;SDS011;36110;51.536;7.562;2022-12-10T14:24:33;23.17;;;17.00;;
50219;SDS011;36110;51.536;7.562;2022-12-10T14:27:12;22.58;;;16.45;;
50219;SDS011;36110;51.536;7.562;2022-12-10T14:29:58;22.40;;;16.17;;
50219;SDS011;36110;51.536;7.562;2022-12-10T14:32:37;23.73;;;16.58;;
50219;SDS011;36110;51.536;7.562;2022-12-10T14:35:04;24.83;;;17.13;;
50219;SDS011;36110;51.536;7.562;2022-12-10T14:37:33;25.55;;;16.52;;
50219;SDS011;36110;51.536;7.562;2022-12-10T14:40:00;23.05;;;15.95;;
50219;SDS011;36110;51.536;7.562;2022-12-10T14:42:26;23.27;;;16.40;;
50219;SDS011;36110;51.536;7.562;2022-12-10T14:44:57;23.85;;;15.93;;
50219;SDS011;36110;51.536;7.562;2022-12-10T14:47:24;21.95;;;15.93;;
50219;SDS011;36110;51.536;7.562;2022-12-10T14:49:51;23.35;;;16.10;;
50219;SDS011;36110;51.536;7.562;2022-12-10T14:52:19;23.08;;;16.90;;
50219;SDS011;36110;51.536;7.562;2022-12-10T14:54:45;22.83;;;15.20;;
50219;SDS011;36110;51.536;7.562;2022-12-10T14:57:24;22.17;;;15.70;;
50219;SDS011;36110;51.536;7.562;2022-12-10T14:59:59;23.60;;;16.50;;
50219;SDS011;36110;51.536;7.562;2022-12-10T15:02:29;21.40;;;14.73;;
50219;SDS011;36110;51.536;7.562;2022-12-10T15:04:57;21.13;;;14.68;;
50219;SDS011;36110;51.536;7.562;2022-12-10T15:07:23;22.27;;;16.20;;
50219;SDS011;36110;51.536;7.562;2022-12-10T15:09:49;22.02;;;15.68;;
50219;SDS011;36110;51.536;7.562;2022-12-10T15:17:54;20.95;;;14.93;;
50219;SDS011;36110;51.536;7.562;2022-12-10T15:28:22;54.75;;;30.83;;
50219;SDS011;36110;51.536;7.562;2022-12-10T15:30:50;52.67;;;32.30;;
50219;SDS011;36110;51.536;7.562;2022-12-10T15:35:56;53.65;;;31.13;;
50219;SDS011;36110;51.536;7.562;2022-12-10T15:38:24;51.17;;;31.65;;
50219;SDS011;36110;51.536;7.562;2022-12-10T15:40:50;56.30;;;32.78;;
50219;SDS011;36110;51.536;7.562;2022-12-10T15:43:29;55.67;;;32.67;;
50219;SDS011;36110;51.536;7.562;2022-12-10T15:45:55;53.15;;;32.63;;
50219;SDS011;36110;51.536;7.562;2022-12-10T15:48:21;52.75;;;32.33;;
50219;SDS011;36110;51.536;7.562;2022-12-10T15:50:46;50.60;;;30.60;;
50219;SDS011;36110;51.536;7.562;2022-12-10T15:53:14;51.10;;;31.23;;
50219;SDS011;36110;51.536;7.562;2022-12-10T15:55:44;51.05;;;31.10;;
50219;SDS011;36110;51.536;7.562;2022-12-10T15:58:10;50.42;;;30.63;;
50219;SDS011;36110;51.536;7.562;2022-12-10T16:00:36;53.92;;;32.70;;
50219;SDS011;36110;51.536;7.562;2022-12-10T16:03:03;51.53;;;32.00;;
50219;SDS011;36110;51.536;7.562;2022-12-10T16:05:31;48.92;;;31.70;;
50219;SDS011;36110;51.536;7.562;2022-12-10T16:07:58;51.28;;;31.52;;
50219;SDS011;36110;51.536;7.562;2022-12-10T16:10:27;50.65;;;30.52;;
50219;SDS011;36110;51.536;7.562;2022-12-10T16:12:57;47.03;;;29.70;;
50219;SDS011;36110;51.536;7.562;2022-12-10T16:15:25;46.15;;;29.48;;
50219;SDS011;36110;51.536;7.562;2022-12-10T16:17:51;47.03;;;29.75;;
50219;SDS011;36110;51.536;7.562;2022-12-10T16:22:54;47.17;;;29.52;;
50219;SDS011;36110;51.536;7.562;2022-12-10T16:25:21;48.25;;;29.92;;
50219;SDS011;36110;51.536;7.562;2022-12-10T16:27:47;48.28;;;29.80;;
50219;SDS011;36110;51.536;7.562;2022-12-10T16:32:40;43.75;;;29.95;;
50219;SDS011;36110;51.536;7.562;2022-12-10T16:35:05;45.20;;;28.20;;
50219;SDS011;36110;51.536;7.562;2022-12-10T16:37:30;47.17;;;29.08;;
50219;SDS011;36110;51.536;7.562;2022-12-10T16:39:56;44.08;;;28.67;;